Time;durP1;ratioP1;P1;durP2;ratioP2;P2;SDS_P1;SDS_P2;PMS_P1;PMS_P2;Temp;Humidity;BMP_temperature;BMP_pressure;BME280_temperature;BME280_humidity;BME280_pressure;Samples;Min_cycle;Max_cycle;Signal;HPM_P1;HPM_P2
2024/01/06 00:01:22;;;;;;;48.88;34.90;;;1.90;1.00;;;;;;5081326;28;20795;-74
2024/01/06 00:03:49;;;;;;;46.22;31.77;;;1.90;1.00;;;;;;5085508;28;20327;-73
2024/01/06 00:06:16;;;;;;;45.33;33.05;;;1.90;1.00;;;;;;5072510;28;20243;-73
2024/01/06 00:08:43;;;;;;;42.35;32.05;;;2.00;1.00;;;;;;5074259;27;20232;-75
2024/01/06 00:11:11;;;;;;;41.45;30.80;;;2.10;1.00;;;;;;5090393;28;20369;-72
2024/01/06 00:13:39;;;;;;;43.75;31.70;;;2.10;1.00;;;;;;5082711;27;20316;-72
2024/01/06 00:16:07;;;;;;;47.35;31.83;;;2.20;1.00;;;;;;5077419;28;20270;-74
2024/01/06 00:18:34;;;;;;;41.13;30.42;;;2.10;1.00;;;;;;5078967;27;20256;-73
2024/01/06 00:21:01;;;;;;;46.75;31.88;;;2.10;1.00;;;;;;5071793;28;20264;-74
2024/01/06 00:23:28;;;;;;;45.72;31.42;;;2.20;1.00;;;;;;5086814;27;20239;-73
2024/01/06 00:25:55;;;;;;;42.92;31.48;;;2.10;1.00;;;;;;5089326;28;20298;-73
2024/01/06 00:28:22;;;;;;;42.10;28.95;;;2.10;1.00;;;;;;5089321;27;20298;-73
2024/01/06 00:30:50;;;;;;;39.33;30.42;;;2.10;1.00;;;;;;5093665;28;20749;-73
2024/01/06 00:33:17;;;;;;;36.75;28.85;;;2.10;1.00;;;;;;5090052;27;20331;-73
2024/01/06 00:35:44;;;;;;;42.40;27.92;;;2.20;1.00;;;;;;5092259;27;20232;-73
2024/01/06 00:38:12;;;;;;;37.15;28.50;;;2.10;1.00;;;;;;5075755;28;20375;-73
2024/01/06 00:40:38;;;;;;;38.10;28.90;;;2.10;1.00;;;;;;5068787;28;20237;-76
2024/01/06 00:43:06;;;;;;;42.92;30.30;;;2.10;1.00;;;;;;5069466;28;20322;-74
2024/01/06 00:45:36;;;;;;;41.63;28.23;;;2.10;1.00;;;;;;5076567;28;20639;-73
2024/01/06 00:48:06;;;;;;;38.97;26.40;;;2.10;1.00;;;;;;5086231;27;20290;-73
2024/01/06 00:50:34;;;;;;;37.63;28.80;;;2.10;1.00;;;;;;5089544;28;20231;-74
2024/01/06 00:53:01;;;;;;;41.03;30.35;;;2.10;1.00;;;;;;5091374;27;20246;-76
2024/01/06 00:55:28;;;;;;;40.60;28.52;;;2.00;1.00;;;;;;5086601;27;20248;-74
2024/01/06 00:57:55;;;;;;;42.00;33.85;;;2.00;1.00;;;;;;5089477;27;20240;-72
2024/01/06 01:00:23;;;;;;;38.03;26.55;;;2.00;1.00;;;;;;5087250;27;20232;-73
2024/01/06 01:02:51;;;;;;;41.13;27.60;;;2.10;1.00;;;;;;5084422;27;20901;-74
2024/01/06 01:05:19;;;;;;;34.63;26.17;;;2.10;1.00;;;;;;5089240;27;20281;-75
2024/01/06 01:07:49;;;;;;;37.72;27.77;;;2.20;1.00;;;;;;5093110;28;20345;-73
2024/01/06 01:10:16;;;;;;;41.92;25.88;;;2.20;1.00;;;;;;5089277;27;20728;-74
2024/01/06 01:12:43;;;;;;;41.03;27.38;;;2.20;1.00;;;;;;5094515;27;20235;-76
2024/01/06 01:15:11;;;;;;;36.65;28.15;;;2.20;1.00;;;;;;5094856;27;20235;-76
2024/01/06 01:17:38;;;;;;;35.90;27.48;;;2.10;1.00;;;;;;5080611;27;20290;-79
2024/01/06 01:20:07;;;;;;;36.97;26.95;;;2.20;1.00;;;;;;5072402;27;20263;-79
2024/01/06 01:22:37;;;;;;;37.30;26.65;;;2.10;1.00;;;;;;5077151;28;20400;-77
2024/01/06 01:25:07;;;;;;;35.45;26.70;;;2.10;1.00;;;;;;5077274;27;20891;-78
2024/01/06 01:27:34;;;;;;;36.85;27.58;;;2.00;1.00;;;;;;5076771;27;20343;-77
2024/01/06 01:30:03;;;;;;;36.40;25.55;;;2.00;1.00;;;;;;5084935;27;20259;-79
2024/01/06 01:32:30;;;;;;;34.17;26.48;;;2.00;1.00;;;;;;5081638;27;20236;-79
2024/01/06 01:34:57;;;;;;;35.65;25.10;;;2.00;1.00;;;;;;5075662;27;20260;-78
2024/01/06 01:37:24;;;;;;;36.42;26.75;;;2.00;1.00;;;;;;5075196;27;20259;-78
2024/01/06 01:39:53;;;;;;;37.40;27.83;;;2.10;1.00;;;;;;5094371;27;20259;-79
2024/01/06 01:42:20;;;;;;;35.90;25.42;;;2.00;1.00;;;;;;5093357;27;20318;-79
2024/01/06 01:44:47;;;;;;;35.28;26.30;;;2.00;1.00;;;;;;5089779;27;20225;-77
2024/01/06 01:47:18;;;;;;;35.55;26.85;;;2.00;1.00;;;;;;5074504;27;20279;-79
2024/01/06 01:49:47;;;;;;;38.70;27.30;;;2.00;1.00;;;;;;5080944;27;20328;-81
2024/01/06 01:52:15;;;;;;;37.15;26.23;;;2.00;1.00;;;;;;5091551;27;20235;-81
2024/01/06 01:54:44;;;;;;;34.42;25.38;;;1.90;1.00;;;;;;5085097;27;20247;-77
2024/01/06 01:57:14;;;;;;;40.00;25.98;;;2.00;1.00;;;;;;5085737;27;20248;-78
2024/01/06 01:59:46;;;;;;;38.47;26.55;;;2.00;1.00;;;;;;5083752;27;20260;-79
2024/01/06 02:02:13;;;;;;;32.28;24.02;;;2.00;1.00;;;;;;5069888;28;20239;-77
2024/01/06 02:04:40;;;;;;;32.75;24.88;;;2.00;1.00;;;;;;5076516;27;20260;-78
2024/01/06 02:07:07;;;;;;;34.28;24.52;;;2.00;1.00;;;;;;5082239;27;20270;-78
2024/01/06 02:09:36;;;;;;;36.00;24.15;;;1.90;1.00;;;;;;5092227;27;20236;-78
2024/01/06 02:12:03;;;;;;;34.58;25.42;;;2.00;1.00;;;;;;5093799;27;20338;-78
2024/01/06 02:14:33;;;;;;;37.53;25.50;;;1.90;1.00;;;;;;5073892;27;20237;-76
2024/01/06 02:17:00;;;;;;;36.03;25.67;;;1.90;1.00;;;;;;5071600;28;20321;-76
2024/01/06 02:19:27;;;;;;;36.85;25.15;;;1.90;1.00;;;;;;5070797;27;21065;-78
2024/01/06 02:21:56;;;;;;;35.78;27.05;;;1.90;1.00;;;;;;5092804;27;21268;-79
2024/01/06 02:24:24;;;;;;;34.30;26.55;;;1.90;1.00;;;;;;5092274;27;20247;-75
2024/01/06 02:26:52;;;;;;;34.22;24.63;;;1.90;1.00;;;;;;5093319;28;20240;-72
2024/01/06 02:29:19;;;;;;;33.22;25.23;;;1.90;1.00;;;;;;5090428;27;20651;-72
2024/01/06 02:31:46;;;;;;;38.60;24.30;;;1.90;1.00;;;;;;5093467;28;21143;-73
2024/01/06 02:34:13;;;;;;;36.67;23.25;;;1.90;1.00;;;;;;5088832;28;20723;-74
2024/01/06 02:36:40;;;;;;;34.90;25.63;;;1.90;1.00;;;;;;5092141;28;20684;-73
2024/01/06 02:39:08;;;;;;;30.67;24.60;;;1.90;1.00;;;;;;5093067;28;20771;-71
2024/01/06 02:41:36;;;;;;;32.38;24.27;;;2.00;1.00;;;;;;5092171;27;20263;-77
2024/01/06 02:44:05;;;;;;;31.95;23.60;;;1.90;1.00;;;;;;5091307;27;20294;-75
2024/01/06 02:46:32;;;;;;;40.20;25.45;;;1.90;1.00;;;;;;5092413;27;20239;-72
2024/01/06 02:48:59;;;;;;;38.50;25.38;;;2.00;1.00;;;;;;5087262;27;20302;-75
2024/01/06 02:51:26;;;;;;;35.10;25.00;;;2.00;1.00;;;;;;5089794;27;21030;-76
2024/01/06 02:53:53;;;;;;;35.55;25.23;;;1.90;1.00;;;;;;5091597;27;20255;-76
2024/01/06 02:56:22;;;;;;;36.75;24.60;;;1.90;1.00;;;;;;5090227;27;20240;-76
2024/01/06 02:58:49;;;;;;;34.78;24.60;;;1.90;1.00;;;;;;5073351;28;20246;-75
2024/01/06 03:01:16;;;;;;;32.85;23.52;;;1.90;1.00;;;;;;5079852;27;20235;-76
2024/01/06 03:03:43;;;;;;;32.67;23.40;;;2.00;1.00;;;;;;5081122;27;20229;-76
2024/01/06 03:06:13;;;;;;;38.78;24.58;;;2.00;1.00;;;;;;5082671;28;20841;-76
2024/01/06 03:08:40;;;;;;;36.65;23.95;;;2.00;1.00;;;;;;5091479;28;20774;-76
2024/01/06 03:11:09;;;;;;;29.10;22.70;;;2.00;1.00;;;;;;5093883;27;20232;-76
2024/01/06 03:13:37;;;;;;;39.47;25.30;;;2.00;1.00;;;;;;5091780;28;20236;-76
2024/01/06 03:16:06;;;;;;;37.90;25.13;;;1.90;1.00;;;;;;5087926;27;20266;-76
2024/01/06 03:18:33;;;;;;;34.33;25.50;;;2.00;1.00;;;;;;5090973;27;21036;-77
2024/01/06 03:21:00;;;;;;;35.33;25.25;;;1.90;1.00;;;;;;5094335;27;20243;-76
2024/01/06 03:23:27;;;;;;;38.80;25.17;;;1.90;1.00;;;;;;5091592;27;20697;-77
2024/01/06 03:25:54;;;;;;;35.33;24.10;;;1.90;1.00;;;;;;5088518;27;20263;-74
2024/01/06 03:28:22;;;;;;;37.50;25.98;;;2.00;1.00;;;;;;5089384;28;20240;-77
2024/01/06 03:30:53;;;;;;;34.72;24.42;;;2.00;1.00;;;;;;5092141;28;20238;-76
2024/01/06 03:33:19;;;;;;;36.50;25.73;;;2.00;1.00;;;;;;5092916;28;20258;-76
2024/01/06 03:35:50;;;;;;;36.15;25.40;;;1.90;1.00;;;;;;5091389;27;20313;-74
2024/01/06 03:38:17;;;;;;;35.60;25.08;;;1.90;1.00;;;;;;5089711;28;20236;-77
2024/01/06 03:40:47;;;;;;;41.67;25.83;;;1.90;1.00;;;;;;5090985;28;20236;-78
2024/01/06 03:43:13;;;;;;;41.42;25.40;;;1.80;1.00;;;;;;5088308;27;20220;-77
2024/01/06 03:45:40;;;;;;;45.25;27.83;;;1.90;1.00;;;;;;5093966;27;20657;-77
2024/01/06 03:48:09;;;;;;;39.17;25.02;;;1.90;1.00;;;;;;5093277;28;20289;-81
2024/01/06 03:50:37;;;;;;;39.63;26.25;;;1.90;1.00;;;;;;5088714;27;20405;-80
2024/01/06 03:53:04;;;;;;;38.45;25.90;;;2.00;1.00;;;;;;5071799;28;20259;-79
2024/01/06 03:55:31;;;;;;;39.33;25.83;;;2.10;1.00;;;;;;5071269;27;20271;-76
2024/01/06 03:57:58;;;;;;;39.67;26.92;;;2.00;1.00;;;;;;5078948;28;20232;-79
2024/01/06 04:00:26;;;;;;;40.00;26.85;;;2.00;1.00;;;;;;5089692;27;20236;-78
2024/01/06 04:02:53;;;;;;;40.03;25.05;;;2.10;1.00;;;;;;5089777;27;20232;-78
2024/01/06 04:05:22;;;;;;;39.75;26.63;;;2.10;1.00;;;;;;5087857;27;20360;-78
2024/01/06 04:07:51;;;;;;;38.15;24.25;;;2.10;1.00;;;;;;5089637;27;20319;-77
2024/01/06 04:10:21;;;;;;;34.10;22.98;;;2.10;1.00;;;;;;5092789;27;20224;-78
2024/01/06 04:12:48;;;;;;;35.25;25.40;;;2.10;1.00;;;;;;5093727;27;20236;-79
2024/01/06 04:15:16;;;;;;;37.03;26.42;;;2.00;1.00;;;;;;5084444;27;20325;-77
2024/01/06 04:17:43;;;;;;;46.50;26.10;;;2.00;1.00;;;;;;5071266;27;20244;-77
2024/01/06 04:20:12;;;;;;;36.72;26.05;;;2.10;1.00;;;;;;5081902;28;20240;-76
2024/01/06 04:22:40;;;;;;;37.83;25.42;;;2.10;1.00;;;;;;5071390;27;20243;-76
2024/01/06 04:25:08;;;;;;;36.92;25.77;;;2.00;1.00;;;;;;5087528;27;21031;-77
2024/01/06 04:27:38;;;;;;;36.33;26.60;;;2.10;1.00;;;;;;5090660;27;20723;-82
2024/01/06 04:30:06;;;;;;;39.85;27.50;;;2.00;1.00;;;;;;5090839;27;20330;-77
2024/01/06 04:32:33;;;;;;;41.38;26.42;;;2.00;1.00;;;;;;5098438;27;21001;-78
2024/01/06 04:35:01;;;;;;;44.95;27.67;;;1.90;1.00;;;;;;5092346;28;20294;-81
2024/01/06 04:37:59;;;;;;;40.50;27.25;;;1.90;1.00;;;;;;5091816;27;20323;-79
2024/01/06 04:40:26;;;;;;;43.47;27.98;;;1.90;1.00;;;;;;5080911;27;20241;-78
2024/01/06 04:42:59;;;;;;;38.83;26.42;;;1.90;1.00;;;;;;5083673;27;20235;-79
2024/01/06 04:45:26;;;;;;;38.88;25.83;;;2.00;1.00;;;;;;5081548;27;20248;-77
2024/01/06 04:48:00;;;;;;;42.58;26.45;;;2.00;1.00;;;;;;5086865;28;20236;-79
2024/01/06 04:50:27;;;;;;;42.72;26.90;;;2.00;1.00;;;;;;5073207;27;20232;-76
2024/01/06 04:52:55;;;;;;;39.13;26.77;;;2.00;1.00;;;;;;5077534;28;20727;-81
2024/01/06 04:55:24;;;;;;;43.95;29.58;;;2.00;1.00;;;;;;5088524;27;20231;-76
2024/01/06 04:57:52;;;;;;;40.05;28.00;;;1.90;1.00;;;;;;5067683;28;20232;-79
2024/01/06 05:00:23;;;;;;;43.50;28.27;;;2.00;1.00;;;;;;5075637;27;20707;-76
2024/01/06 05:02:49;;;;;;;41.80;30.02;;;2.00;1.00;;;;;;5074766;28;20232;-76
2024/01/06 05:05:16;;;;;;;40.23;28.17;;;2.10;1.00;;;;;;5068809;27;20263;-76
2024/01/06 05:07:43;;;;;;;38.80;27.10;;;2.10;1.00;;;;;;5071782;28;21270;-79
2024/01/06 05:10:11;;;;;;;42.58;28.20;;;2.10;1.00;;;;;;5069875;28;21038;-75
2024/01/06 05:12:39;;;;;;;42.75;28.23;;;2.00;1.00;;;;;;5071636;28;20694;-75
2024/01/06 05:15:07;;;;;;;38.97;26.48;;;2.00;1.00;;;;;;5072361;28;20754;-77
2024/01/06 05:17:34;;;;;;;53.17;28.77;;;2.00;1.00;;;;;;5077792;27;20267;-76
2024/01/06 05:20:01;;;;;;;44.42;31.25;;;2.00;1.00;;;;;;5081935;27;20319;-76
2024/01/06 05:22:28;;;;;;;44.55;28.48;;;2.00;1.00;;;;;;5071967;28;20245;-76
2024/01/06 05:24:57;;;;;;;38.40;28.92;;;1.90;1.00;;;;;;5087652;27;20315;-75
2024/01/06 05:27:24;;;;;;;48.25;27.73;;;1.80;1.00;;;;;;5087155;28;20248;-77
2024/01/06 05:29:53;;;;;;;49.97;29.10;;;1.80;1.00;;;;;;5090318;27;20326;-76
2024/01/06 05:32:20;;;;;;;43.95;28.38;;;1.80;1.00;;;;;;5086700;28;20263;-76
2024/01/06 05:34:47;;;;;;;45.80;30.13;;;1.80;1.00;;;;;;5087915;28;20240;-76
2024/01/06 05:37:16;;;;;;;44.38;30.58;;;1.80;1.00;;;;;;5091631;28;20322;-76
2024/01/06 05:39:43;;;;;;;50.63;31.13;;;1.80;1.00;;;;;;5089490;28;20243;-76
2024/01/06 05:42:12;;;;;;;46.00;30.05;;;1.80;1.00;;;;;;5088923;27;20236;-78
2024/01/06 05:44:39;;;;;;;45.55;29.67;;;1.90;1.00;;;;;;5079807;28;20240;-76
2024/01/06 05:47:08;;;;;;;51.45;29.65;;;1.90;1.00;;;;;;5082247;28;20240;-80
2024/01/06 05:49:35;;;;;;;43.42;29.50;;;1.80;1.00;;;;;;5085622;27;20248;-77
2024/01/06 05:52:02;;;;;;;48.17;31.13;;;1.90;1.00;;;;;;5071570;28;21044;-77
2024/01/06 05:54:30;;;;;;;50.88;30.33;;;1.90;1.00;;;;;;5087355;27;20267;-77
2024/01/06 05:56:57;;;;;;;53.92;29.48;;;1.90;1.00;;;;;;5089677;27;21159;-77
2024/01/06 05:59:30;;;;;;;42.10;28.58;;;1.90;1.00;;;;;;5093577;27;21139;-80
2024/01/06 06:02:05;;;;;;;44.67;30.15;;;1.80;1.00;;;;;;5095369;27;20285;-77
2024/01/06 06:04:33;;;;;;;47.35;29.50;;;1.80;1.00;;;;;;5092372;27;20262;-77
2024/01/06 06:07:02;;;;;;;50.17;29.95;;;1.80;1.00;;;;;;5075483;27;20240;-78
2024/01/06 06:09:29;;;;;;;44.22;30.05;;;1.80;1.00;;;;;;5090323;27;20278;-77
2024/01/06 06:11:57;;;;;;;47.25;30.67;;;1.70;1.00;;;;;;5085056;27;20250;-82
2024/01/06 06:14:31;;;;;;;44.10;30.25;;;1.70;1.00;;;;;;5079218;28;20602;-82
2024/01/06 06:17:00;;;;;;;46.90;29.10;;;1.70;1.00;;;;;;5091225;27;20279;-76
2024/01/06 06:19:27;;;;;;;44.85;29.38;;;1.80;1.00;;;;;;5091225;27;20239;-77
2024/01/06 06:21:56;;;;;;;41.95;28.38;;;1.70;1.00;;;;;;5094784;27;20231;-77
2024/01/06 06:24:25;;;;;;;48.25;28.38;;;1.70;1.00;;;;;;5088913;27;20927;-76
2024/01/06 06:26:55;;;;;;;47.20;29.45;;;1.70;1.00;;;;;;5091976;27;20262;-76
2024/01/06 06:29:22;;;;;;;45.13;28.42;;;1.70;1.00;;;;;;5091120;27;20726;-81
2024/01/06 06:31:49;;;;;;;44.15;27.92;;;1.80;1.00;;;;;;5094834;27;20244;-76
2024/01/06 06:34:16;;;;;;;44.13;30.00;;;1.80;1.00;;;;;;5092060;27;20236;-78
2024/01/06 06:36:49;;;;;;;45.85;28.50;;;1.80;1.00;;;;;;5081941;27;20354;-78
2024/01/06 06:39:18;;;;;;;42.35;28.73;;;1.80;1.00;;;;;;5074812;27;20236;-77
2024/01/06 06:41:45;;;;;;;44.55;30.50;;;1.80;1.00;;;;;;5091147;27;20349;-78
2024/01/06 06:44:12;;;;;;;44.38;29.85;;;1.70;1.00;;;;;;5091127;27;20239;-77
2024/01/06 06:46:39;;;;;;;43.53;28.00;;;1.70;1.00;;;;;;5089830;28;20240;-78
2024/01/06 06:49:07;;;;;;;44.22;28.45;;;1.70;1.00;;;;;;5092608;28;20240;-81
2024/01/06 06:51:34;;;;;;;40.95;28.42;;;1.60;1.00;;;;;;5088247;27;20243;-72
2024/01/06 06:54:01;;;;;;;44.58;27.60;;;1.60;1.00;;;;;;5090707;28;21210;-74
2024/01/06 06:56:29;;;;;;;47.80;27.50;;;1.50;1.00;;;;;;5089747;27;20240;-73
2024/01/06 06:58:56;;;;;;;43.47;28.27;;;1.50;1.00;;;;;;5090678;27;20899;-74
2024/01/06 07:01:23;;;;;;;43.53;27.98;;;1.60;1.00;;;;;;5077566;28;20236;-72
2024/01/06 07:03:59;;;;;;;44.50;28.00;;;1.60;1.00;;;;;;5068585;28;20241;-73
2024/01/06 07:06:30;;;;;;;41.63;26.90;;;1.50;1.00;;;;;;5082305;27;20881;-78
2024/01/06 07:08:57;;;;;;;51.72;29.30;;;1.50;1.00;;;;;;5077421;27;20236;-76
2024/01/06 07:11:24;;;;;;;56.15;29.00;;;1.50;1.00;;;;;;5087767;27;20259;-76
2024/01/06 07:13:53;;;;;;;48.85;27.38;;;1.50;1.00;;;;;;5091371;28;20259;-76
2024/01/06 07:16:21;;;;;;;47.20;28.20;;;1.50;1.00;;;;;;5071664;28;20244;-76
2024/01/06 07:18:50;;;;;;;44.20;28.33;;;1.50;1.00;;;;;;5089138;27;20319;-80
2024/01/06 07:21:18;;;;;;;47.05;29.50;;;1.50;1.00;;;;;;5106222;27;20768;-76
2024/01/06 07:23:45;;;;;;;43.75;29.38;;;1.60;1.00;;;;;;5085506;28;21028;-78
2024/01/06 07:26:13;;;;;;;45.95;29.38;;;1.60;1.00;;;;;;5072065;28;20236;-79
2024/01/06 07:28:43;;;;;;;46.75;28.27;;;1.50;1.00;;;;;;5071376;27;21918;-80
2024/01/06 07:31:13;;;;;;;50.53;28.77;;;1.50;1.00;;;;;;5073100;28;20276;-82
2024/01/06 07:33:40;;;;;;;46.70;29.42;;;1.50;1.00;;;;;;5076539;27;20293;-79
2024/01/06 07:36:07;;;;;;;52.58;29.73;;;1.50;1.00;;;;;;5074364;28;20286;-79
2024/01/06 07:38:34;;;;;;;50.05;29.98;;;1.50;1.00;;;;;;5076658;27;20335;-73
2024/01/06 07:41:04;;;;;;;47.65;28.52;;;1.50;1.00;;;;;;5083430;27;20242;-76
2024/01/06 07:43:34;;;;;;;48.15;30.88;;;1.50;1.00;;;;;;5091915;27;20309;-78
2024/01/06 07:46:01;;;;;;;44.38;28.95;;;1.50;1.00;;;;;;5069580;27;20232;-77
2024/01/06 07:48:30;;;;;;;44.78;31.80;;;1.50;1.00;;;;;;5069949;28;20291;-74
2024/01/06 07:50:57;;;;;;;43.03;28.60;;;1.40;1.00;;;;;;5092033;27;20285;-72
2024/01/06 07:53:24;;;;;;;50.60;29.58;;;1.30;1.00;;;;;;5089870;27;20240;-74
2024/01/06 07:55:55;;;;;;;53.28;30.60;;;1.30;1.00;;;;;;5092937;27;20231;-76
2024/01/06 07:58:22;;;;;;;48.28;31.15;;;1.20;1.00;;;;;;5082482;27;20657;-72
2024/01/06 08:00:50;;;;;;;54.55;31.02;;;1.20;1.00;;;;;;5084771;27;20430;-75
2024/01/06 08:03:17;;;;;;;51.08;30.50;;;1.20;1.00;;;;;;5063280;27;20237;-75
2024/01/06 08:05:46;;;;;;;46.00;30.52;;;1.20;1.00;;;;;;5088094;27;20323;-74
2024/01/06 08:08:16;;;;;;;58.70;32.40;;;1.20;1.00;;;;;;5080866;28;20247;-72
2024/01/06 08:10:44;;;;;;;48.70;29.98;;;1.30;1.00;;;;;;5090150;27;20229;-75
2024/01/06 08:13:11;;;;;;;49.83;30.13;;;1.30;1.00;;;;;;5090474;28;20232;-72
2024/01/06 08:15:38;;;;;;;50.55;30.00;;;1.20;1.00;;;;;;5087088;27;20239;-72
2024/01/06 08:18:05;;;;;;;50.20;30.17;;;1.10;1.00;;;;;;5088717;28;20240;-72
2024/01/06 08:20:32;;;;;;;49.30;30.55;;;1.10;1.00;;;;;;5089117;27;20323;-72
2024/01/06 08:23:01;;;;;;;48.97;29.98;;;1.10;1.00;;;;;;5085829;28;20282;-78
2024/01/06 08:25:28;;;;;;;45.80;29.55;;;1.10;1.00;;;;;;5089951;27;20297;-73
2024/01/06 08:27:55;;;;;;;48.70;31.23;;;1.00;1.00;;;;;;5077488;27;20273;-72
2024/01/06 08:30:23;;;;;;;45.40;29.50;;;1.00;1.00;;;;;;5062096;28;20306;-73
2024/01/06 08:32:52;;;;;;;62.70;35.20;;;1.00;1.00;;;;;;5081550;28;20757;-73
2024/01/06 08:35:19;;;;;;;52.42;28.60;;;1.00;1.00;;;;;;5090660;27;20250;-73
2024/01/06 08:37:47;;;;;;;49.33;29.45;;;1.00;1.00;;;;;;5082716;28;20736;-75
2024/01/06 08:40:15;;;;;;;50.80;32.03;;;1.00;1.00;;;;;;5067111;27;20617;-73
2024/01/06 08:42:43;;;;;;;44.83;30.30;;;1.10;1.00;;;;;;5075771;27;20248;-73
2024/01/06 08:45:10;;;;;;;44.22;30.27;;;1.10;1.00;;;;;;5068291;28;20236;-75
2024/01/06 08:47:38;;;;;;;47.38;28.58;;;1.00;1.00;;;;;;5068810;27;20308;-76
2024/01/06 08:50:06;;;;;;;52.42;28.20;;;1.00;1.00;;;;;;5070492;27;20331;-76
2024/01/06 08:52:34;;;;;;;47.95;28.90;;;1.00;1.00;;;;;;5074063;27;20247;-75
2024/01/06 08:55:01;;;;;;;53.60;31.25;;;1.00;1.00;;;;;;5088463;27;21247;-77
2024/01/06 08:57:32;;;;;;;52.60;29.77;;;1.00;1.00;;;;;;5079932;28;20225;-75
2024/01/06 09:00:01;;;;;;;49.95;30.63;;;1.10;1.00;;;;;;5066600;28;21120;-76
2024/01/06 09:02:28;;;;;;;52.03;30.00;;;1.10;1.00;;;;;;5069391;28;20233;-75
2024/01/06 09:04:55;;;;;;;47.00;30.45;;;1.20;1.00;;;;;;5081746;27;20305;-77
2024/01/06 09:07:22;;;;;;;50.72;29.65;;;1.30;1.00;;;;;;5072010;28;20232;-76
2024/01/06 09:09:51;;;;;;;46.75;30.25;;;1.30;1.00;;;;;;5092033;27;20330;-76
2024/01/06 09:12:25;;;;;;;49.00;30.90;;;1.40;1.00;;;;;;5080212;27;20266;-76
2024/01/06 09:14:54;;;;;;;46.58;30.35;;;1.40;1.00;;;;;;5101475;27;20235;-76
2024/01/06 09:17:22;;;;;;;47.40;29.88;;;1.40;1.00;;;;;;5092474;27;20759;-74
2024/01/06 09:19:48;;;;;;;54.65;30.15;;;1.40;1.00;;;;;;5086533;27;20317;-76
2024/01/06 09:22:15;;;;;;;49.63;30.85;;;1.40;1.00;;;;;;5085241;28;21077;-77
2024/01/06 09:24:43;;;;;;;45.35;28.33;;;1.30;1.00;;;;;;5087927;27;20243;-77
2024/01/06 09:27:12;;;;;;;43.92;27.88;;;1.30;1.00;;;;;;5092372;27;20294;-75
2024/01/06 09:29:41;;;;;;;47.58;29.30;;;1.30;1.00;;;;;;5092453;27;20239;-75
2024/01/06 09:32:12;;;;;;;42.95;26.25;;;1.20;1.00;;;;;;5084713;27;20232;-76
2024/01/06 09:34:39;;;;;;;47.53;29.23;;;1.20;1.00;;;;;;5073350;28;20239;-76
2024/01/06 09:37:08;;;;;;;46.63;30.90;;;1.20;1.00;;;;;;5086422;28;20235;-78
2024/01/06 09:39:35;;;;;;;43.55;27.27;;;1.20;1.00;;;;;;5089974;27;20271;-77
2024/01/06 09:42:02;;;;;;;42.88;28.55;;;1.20;1.00;;;;;;5086989;27;20268;-77
2024/01/06 09:44:31;;;;;;;44.40;29.95;;;1.20;1.00;;;;;;5071482;27;20252;-76
2024/01/06 09:46:59;;;;;;;43.80;28.38;;;1.20;1.00;;;;;;5076041;27;20256;-77
2024/01/06 09:49:31;;;;;;;47.80;29.92;;;1.20;1.00;;;;;;5083332;28;20264;-76
2024/01/06 09:52:00;;;;;;;40.08;29.15;;;1.20;1.00;;;;;;5095705;27;20389;-78
2024/01/06 09:54:33;;;;;;;44.97;29.70;;;1.00;1.00;;;;;;5092251;27;20321;-77
2024/01/06 09:57:01;;;;;;;42.45;27.67;;;1.00;1.00;;;;;;5075179;27;20242;-77
2024/01/06 09:59:30;;;;;;;44.42;28.85;;;1.10;1.00;;;;;;5076177;28;20237;-78
2024/01/06 10:01:59;;;;;;;41.17;28.48;;;1.10;1.00;;;;;;5095760;27;20227;-78
2024/01/06 10:04:26;;;;;;;40.95;28.67;;;1.20;1.00;;;;;;5081314;27;20236;-75
2024/01/06 10:06:58;;;;;;;41.58;29.40;;;1.20;1.00;;;;;;5096479;27;20235;-76
2024/01/06 10:09:28;;;;;;;43.92;27.63;;;1.20;1.00;;;;;;5093717;27;21167;-77
2024/01/06 10:11:58;;;;;;;42.63;28.40;;;1.20;1.00;;;;;;5094565;28;20247;-77
2024/01/06 10:14:26;;;;;;;44.92;28.02;;;1.20;1.00;;;;;;5088700;27;20731;-79
2024/01/06 10:16:53;;;;;;;44.28;29.50;;;1.20;1.00;;;;;;5074118;28;20244;-76
2024/01/06 10:19:21;;;;;;;40.70;26.88;;;1.20;1.00;;;;;;5086504;27;20281;-78
2024/01/06 10:21:48;;;;;;;39.42;28.02;;;1.20;1.00;;;;;;5093529;27;20313;-77
2024/01/06 10:24:19;;;;;;;40.33;26.50;;;1.20;1.00;;;;;;5095067;27;20242;-77
2024/01/06 10:26:47;;;;;;;39.85;28.95;;;1.20;1.00;;;;;;5094194;27;20255;-77
2024/01/06 10:29:14;;;;;;;45.00;27.52;;;1.30;1.00;;;;;;5092955;27;20228;-77
2024/01/06 10:31:43;;;;;;;39.22;28.33;;;1.30;1.00;;;;;;5095266;27;20719;-77
2024/01/06 10:34:10;;;;;;;40.65;27.45;;;1.40;1.00;;;;;;5094364;27;20263;-76
2024/01/06 10:36:37;;;;;;;42.88;28.60;;;1.40;1.00;;;;;;5093692;27;20263;-78
2024/01/06 10:39:06;;;;;;;40.03;28.33;;;1.50;1.00;;;;;;5090852;27;20267;-78
2024/01/06 10:41:35;;;;;;;37.58;27.05;;;1.50;1.00;;;;;;5089584;27;20232;-81
2024/01/06 10:44:03;;;;;;;41.63;26.55;;;1.50;1.00;;;;;;5076334;28;20970;-77
2024/01/06 10:46:32;;;;;;;36.85;25.65;;;1.40;1.00;;;;;;5084163;27;20263;-78
2024/01/06 10:49:00;;;;;;;39.42;26.77;;;1.40;1.00;;;;;;5092489;27;20263;-73
2024/01/06 10:51:30;;;;;;;38.78;26.55;;;1.30;1.00;;;;;;5091872;27;20243;-74
2024/01/06 10:54:01;;;;;;;35.50;26.02;;;1.40;1.00;;;;;;5090177;27;20228;-73
2024/01/06 10:56:30;;;;;;;37.35;25.48;;;1.40;1.00;;;;;;5087649;27;20242;-76
2024/01/06 10:59:01;;;;;;;34.85;24.42;;;1.30;1.00;;;;;;5080765;28;20241;-73
2024/01/06 11:01:30;;;;;;;37.55;27.00;;;1.30;1.00;;;;;;5085942;28;20345;-72
2024/01/06 11:03:58;;;;;;;37.60;26.17;;;1.30;1.00;;;;;;5077215;28;20241;-75
2024/01/06 11:06:26;;;;;;;38.20;26.58;;;1.30;1.00;;;;;;5070581;27;20237;-73
2024/01/06 11:09:02;;;;;;;39.38;27.50;;;1.40;1.00;;;;;;5066494;27;20249;-73
2024/01/06 11:11:36;;;;;;;41.28;27.95;;;1.50;1.00;;;;;;5086512;27;20278;-77
2024/01/06 11:14:29;;;;;;;35.17;26.13;;;1.40;1.00;;;;;;5091458;27;20266;-74
2024/01/06 11:16:58;;;;;;;38.75;27.13;;;1.40;1.00;;;;;;5074688;27;20759;-76
2024/01/06 11:19:54;;;;;;;36.17;25.83;;;1.30;1.00;;;;;;5071143;28;20240;-73
2024/01/06 11:22:24;;;;;;;32.30;26.15;;;1.30;1.00;;;;;;5031411;28;21004;-74
2024/01/06 11:24:55;;;;;;;35.53;26.15;;;1.30;1.00;;;;;;5070338;28;20256;-76
2024/01/06 11:27:26;;;;;;;38.67;26.58;;;1.40;1.00;;;;;;5080954;27;20727;-78
2024/01/06 11:29:55;;;;;;;35.53;24.25;;;1.40;1.00;;;;;;5078817;28;20287;-78
2024/01/06 11:32:39;;;;;;;37.60;24.65;;;1.30;1.00;;;;;;5073339;28;20264;-78
2024/01/06 11:35:09;;;;;;;34.28;24.58;;;1.10;1.00;;;;;;5081401;28;20326;-77
2024/01/06 11:37:38;;;;;;;38.08;27.77;;;1.10;1.00;;;;;;5071134;27;20323;-77
2024/01/06 11:40:13;;;;;;;32.55;25.05;;;1.10;1.00;;;;;;5086772;28;20232;-79
2024/01/06 11:42:42;;;;;;;41.22;28.23;;;1.20;1.00;;;;;;5087335;27;20250;-77
2024/01/06 11:45:12;;;;;;;35.03;25.85;;;1.20;1.00;;;;;;5082311;28;20240;-78
2024/01/06 11:47:41;;;;;;;38.88;27.00;;;1.30;1.00;;;;;;5080848;27;20240;-77
2024/01/06 11:50:08;;;;;;;36.35;24.60;;;1.40;1.00;;;;;;5085213;28;20240;-78
2024/01/06 11:52:36;;;;;;;41.05;26.27;;;1.40;1.00;;;;;;5093354;28;20408;-79
2024/01/06 11:55:04;;;;;;;31.85;25.58;;;1.40;1.00;;;;;;5091893;27;20254;-77
2024/01/06 11:57:31;;;;;;;34.55;25.13;;;1.30;1.00;;;;;;5084508;28;21107;-77
2024/01/06 11:59:59;;;;;;;36.95;24.70;;;1.40;1.00;;;;;;5090970;28;20362;-75
2024/01/06 12:02:28;;;;;;;36.67;23.60;;;1.40;1.00;;;;;;5091616;27;20244;-76
2024/01/06 12:04:55;;;;;;;34.50;26.15;;;1.30;1.00;;;;;;5088965;28;20243;-76
2024/01/06 12:07:23;;;;;;;32.63;24.08;;;1.30;1.00;;;;;;5082820;27;20700;-76
2024/01/06 12:10:01;;;;;;;36.33;25.55;;;1.40;1.00;;;;;;5071522;28;20245;-76
2024/01/06 12:12:28;;;;;;;38.72;27.17;;;1.30;1.00;;;;;;5069449;27;20233;-74
2024/01/06 12:14:55;;;;;;;33.90;25.45;;;1.40;1.00;;;;;;5075091;28;20243;-75
2024/01/06 12:17:23;;;;;;;30.15;22.67;;;1.40;1.00;;;;;;5095013;27;20240;-77
2024/01/06 12:19:54;;;;;;;36.10;24.77;;;1.40;1.00;;;;;;5092203;28;20288;-77
2024/01/06 12:22:22;;;;;;;31.58;24.85;;;1.40;1.00;;;;;;5093740;27;20227;-78
2024/01/06 12:24:52;;;;;;;36.50;25.20;;;1.40;1.00;;;;;;5094364;28;20237;-78
2024/01/06 12:27:21;;;;;;;38.60;26.23;;;1.30;1.00;;;;;;5094005;27;20244;-78
2024/01/06 12:29:50;;;;;;;38.60;26.88;;;1.20;1.00;;;;;;5093053;28;20239;-76
2024/01/06 12:32:19;;;;;;;35.63;24.77;;;1.20;1.00;;;;;;5091600;27;20250;-76
2024/01/06 12:34:47;;;;;;;35.50;26.42;;;1.10;1.00;;;;;;5093736;27;20323;-76
2024/01/06 12:37:23;;;;;;;40.85;28.65;;;1.20;1.00;;;;;;5091556;27;20228;-82
2024/01/06 12:39:52;;;;;;;35.08;25.33;;;1.20;1.00;;;;;;5088300;27;20239;-76
2024/01/06 12:42:21;;;;;;;33.80;24.38;;;1.30;1.00;;;;;;5087474;27;20288;-76
2024/01/06 12:44:48;;;;;;;34.13;24.23;;;1.30;1.00;;;;;;5088233;28;20231;-75
2024/01/06 12:47:15;;;;;;;32.85;24.20;;;1.30;1.00;;;;;;5088757;27;20266;-76
2024/01/06 12:49:43;;;;;;;35.22;24.45;;;1.30;1.00;;;;;;5067589;28;20239;-77
2024/01/06 12:52:10;;;;;;;38.83;24.77;;;1.20;1.00;;;;;;5071440;27;20240;-78
2024/01/06 12:54:40;;;;;;;39.28;25.88;;;1.20;1.00;;;;;;5074572;27;20239;-77